Time;durP1;ratioP1;P1;durP2;ratioP2;P2;SDS_P1;SDS_P2;PMS_P1;PMS_P2;Temp;Humidity;BMP_temperature;BMP_pressure;BME280_temperature;BME280_humidity;BME280_pressure;Samples;Min_cycle;Max_cycle;Signal;HPM_P1;HPM_P2
2024/02/09 00:00:07;;;;;;;14.07;4.38;;;9.30;99.90;;;;;;4910091;28;20072;-77
2024/02/09 00:02:41;;;;;;;7.35;4.20;;;9.30;99.90;;;;;;4911478;28;20036;-77
2024/02/09 00:05:10;;;;;;;10.90;4.60;;;9.30;99.90;;;;;;4912001;28;20479;-77
2024/02/09 00:07:36;;;;;;;7.72;3.00;;;9.30;99.90;;;;;;4941210;28;20035;-77
2024/02/09 00:10:02;;;;;;;8.68;3.67;;;9.30;99.90;;;;;;4955581;28;20035;-76
2024/02/09 00:12:30;;;;;;;7.20;3.05;;;9.30;99.90;;;;;;4909920;28;20032;-77
2024/02/09 00:14:59;;;;;;;7.75;3.35;;;9.30;99.90;;;;;;4906061;28;20044;-77
2024/02/09 00:17:25;;;;;;;11.88;4.32;;;9.30;99.90;;;;;;4922611;29;20090;-77
2024/02/09 00:19:50;;;;;;;13.57;2.90;;;9.30;99.90;;;;;;4907922;29;20082;-77
2024/02/09 00:22:18;;;;;;;6.22;3.17;;;9.30;99.90;;;;;;4890290;28;20043;-76
2024/02/09 00:24:44;;;;;;;8.05;3.22;;;9.30;99.90;;;;;;4905974;28;20492;-76
2024/02/09 00:27:09;;;;;;;9.30;3.72;;;9.30;99.90;;;;;;4902686;28;20032;-77
2024/02/09 00:29:35;;;;;;;9.40;3.50;;;9.30;99.90;;;;;;4921884;28;20386;-77
2024/02/09 00:32:01;;;;;;;10.82;4.22;;;9.20;99.90;;;;;;4925242;29;20373;-77
2024/02/09 00:34:26;;;;;;;12.70;3.50;;;9.30;99.90;;;;;;4926950;28;20454;-76
2024/02/09 00:36:52;;;;;;;13.55;3.55;;;9.30;99.90;;;;;;4923340;28;20028;-76
2024/02/09 00:39:17;;;;;;;15.00;4.25;;;9.30;99.90;;;;;;4892241;28;20032;-77
2024/02/09 00:41:43;;;;;;;16.23;3.17;;;9.20;99.90;;;;;;4922594;28;20051;-77
2024/02/09 00:44:08;;;;;;;13.60;3.97;;;9.30;99.90;;;;;;4904063;29;20127;-77
2024/02/09 00:46:50;;;;;;;17.83;4.28;;;9.30;99.90;;;;;;4918501;29;20062;-76
2024/02/09 00:49:15;;;;;;;8.93;3.60;;;9.30;99.90;;;;;;4909187;28;20031;-76
2024/02/09 00:51:41;;;;;;;15.40;3.75;;;9.30;99.90;;;;;;4920058;28;20046;-78
2024/02/09 00:54:07;;;;;;;11.20;3.45;;;9.30;99.90;;;;;;4938869;28;20032;-78
2024/02/09 00:56:33;;;;;;;9.02;3.55;;;9.30;99.90;;;;;;4936707;28;20043;-79
2024/02/09 00:58:59;;;;;;;8.88;3.80;;;9.20;99.90;;;;;;4911440;28;20032;-78
2024/02/09 01:01:25;;;;;;;13.30;4.13;;;9.20;99.90;;;;;;4926548;28;20038;-78
2024/02/09 01:03:53;;;;;;;13.55;4.65;;;9.20;99.90;;;;;;4940338;28;20417;-78
2024/02/09 01:06:21;;;;;;;13.95;3.95;;;9.20;99.90;;;;;;4926020;28;20039;-78
2024/02/09 01:08:47;;;;;;;8.23;3.60;;;9.20;99.90;;;;;;4922067;28;20026;-76
2024/02/09 01:11:13;;;;;;;13.90;3.30;;;9.20;99.90;;;;;;4907995;28;20388;-79
2024/02/09 02:46:24;;;;;;;9.50;3.42;;;9.20;99.90;;;;;;4946925;28;20497;-77
2024/02/09 03:05:17;;;;;;;11.18;2.85;;;9.20;99.90;;;;;;4927606;28;20697;-78
2024/02/09 03:07:43;;;;;;;12.20;3.40;;;9.20;99.90;;;;;;4929136;28;20541;-77
2024/02/09 03:10:09;;;;;;;10.57;2.60;;;9.20;99.90;;;;;;4942967;28;20036;-77
2024/02/09 03:12:38;;;;;;;14.30;3.55;;;9.30;99.90;;;;;;4928986;28;20047;-77
2024/02/09 03:15:07;;;;;;;10.55;3.17;;;9.20;99.90;;;;;;4915025;29;20045;-77
2024/02/09 03:17:33;;;;;;;13.57;3.50;;;9.20;99.90;;;;;;4927304;28;20512;-77
2024/02/09 03:20:04;;;;;;;9.60;3.58;;;9.20;99.90;;;;;;4926840;28;20039;-77
2024/02/09 03:22:30;;;;;;;9.80;3.88;;;9.20;99.90;;;;;;4913640;28;20043;-77
2024/02/09 03:25:03;;;;;;;8.32;2.90;;;9.20;99.90;;;;;;4925702;28;20035;-77
2024/02/09 03:27:33;;;;;;;8.48;2.72;;;9.20;99.90;;;;;;4943661;28;20035;-77
2024/02/09 03:29:59;;;;;;;12.70;3.53;;;9.10;99.90;;;;;;4910570;28;20397;-77
2024/02/09 03:32:28;;;;;;;8.02;2.50;;;9.20;99.90;;;;;;4928893;28;20501;-76
2024/02/09 03:34:57;;;;;;;11.27;3.42;;;9.10;99.90;;;;;;4929173;28;20039;-77
2024/02/09 03:37:26;;;;;;;10.13;3.00;;;9.20;99.90;;;;;;4925651;28;20035;-77
2024/02/09 03:39:57;;;;;;;6.82;2.35;;;9.10;99.90;;;;;;4929743;28;20034;-78
2024/02/09 03:42:23;;;;;;;9.05;2.53;;;9.20;99.90;;;;;;4910457;28;20448;-77
2024/02/09 03:44:54;;;;;;;7.55;3.15;;;9.10;99.90;;;;;;4924651;28;20031;-77
2024/02/09 03:47:19;;;;;;;7.68;2.58;;;9.20;99.90;;;;;;4928836;28;20043;-76
2024/02/09 03:49:49;;;;;;;11.80;2.42;;;9.20;99.90;;;;;;4926047;28;20035;-76
2024/02/09 03:52:15;;;;;;;8.75;3.15;;;9.10;99.90;;;;;;4908738;28;20102;-77
2024/02/09 03:54:40;;;;;;;6.53;2.83;;;9.20;99.90;;;;;;4911215;28;20344;-77
2024/02/09 03:57:06;;;;;;;10.80;3.75;;;9.20;99.90;;;;;;4911294;28;20035;-77
2024/02/09 03:59:32;;;;;;;12.38;2.95;;;9.20;99.90;;;;;;4927923;28;20123;-77
2024/02/09 04:01:59;;;;;;;10.95;4.50;;;9.20;99.90;;;;;;4942834;28;20042;-77
2024/02/09 04:04:26;;;;;;;10.50;3.88;;;9.10;99.90;;;;;;4941623;28;20031;-77
2024/02/09 04:06:52;;;;;;;7.38;2.50;;;9.20;99.90;;;;;;4912784;28;20032;-77
2024/02/09 04:09:17;;;;;;;9.93;2.97;;;9.20;99.90;;;;;;4939787;28;20039;-76
2024/02/09 04:11:43;;;;;;;7.82;2.70;;;9.10;99.90;;;;;;4943106;28;20031;-76
2024/02/09 04:14:08;;;;;;;6.95;2.78;;;9.20;99.90;;;;;;4924518;28;21066;-76
2024/02/09 04:16:34;;;;;;;6.97;2.58;;;9.20;99.90;;;;;;4924222;28;20043;-76
2024/02/09 04:18:59;;;;;;;10.75;3.15;;;9.10;99.90;;;;;;4939164;28;20032;-76
2024/02/09 04:21:25;;;;;;;13.40;2.85;;;9.10;99.90;;;;;;4927504;28;20043;-76
2024/02/09 04:23:52;;;;;;;7.07;2.50;;;9.20;99.90;;;;;;4908113;28;20408;-76
2024/02/09 04:26:18;;;;;;;8.00;2.25;;;9.10;99.90;;;;;;4913033;28;20074;-76
2024/02/09 04:28:43;;;;;;;2.05;1.83;;;9.20;99.90;;;;;;4938272;28;20038;-76
2024/02/09 04:31:09;;;;;;;5.43;1.77;;;9.20;99.90;;;;;;4928990;28;20093;-76
2024/02/09 04:33:36;;;;;;;2.95;1.13;;;9.20;99.90;;;;;;4910448;28;20432;-76
2024/02/09 04:36:01;;;;;;;4.75;2.25;;;9.20;99.90;;;;;;4940003;28;20106;-76
2024/02/09 04:38:27;;;;;;;12.75;3.28;;;9.20;99.90;;;;;;4921910;28;20051;-77
2024/02/09 04:40:55;;;;;;;6.28;2.20;;;9.20;99.90;;;;;;4923212;28;20035;-77
2024/02/09 04:43:21;;;;;;;5.20;1.80;;;9.20;99.90;;;;;;4929658;28;20081;-77
2024/02/09 04:45:47;;;;;;;3.60;1.95;;;9.20;99.90;;;;;;4910866;28;20039;-76
2024/02/09 04:48:13;;;;;;;2.78;1.20;;;9.10;99.90;;;;;;4924069;28;20572;-76
2024/02/09 04:50:38;;;;;;;4.32;1.80;;;9.20;99.90;;;;;;4937570;28;20452;-76
2024/02/09 04:53:04;;;;;;;3.90;2.00;;;9.20;99.90;;;;;;4924882;28;20051;-76
2024/02/09 04:55:29;;;;;;;7.10;1.83;;;9.20;99.90;;;;;;4912307;28;20090;-77
2024/02/09 04:57:55;;;;;;;3.58;1.48;;;9.20;99.90;;;;;;4928273;28;20084;-77
2024/02/09 05:00:20;;;;;;;3.33;1.67;;;9.20;99.90;;;;;;4926001;28;20809;-77
2024/02/09 05:02:46;;;;;;;3.45;1.30;;;9.20;99.90;;;;;;4925062;28;20417;-76
2024/02/09 05:05:12;;;;;;;1.25;0.88;;;9.20;99.90;;;;;;4912282;28;20032;-76
2024/02/09 05:07:37;;;;;;;4.80;1.63;;;9.20;99.90;;;;;;4921850;28;20103;-76
2024/02/09 05:10:04;;;;;;;2.53;1.42;;;9.20;99.90;;;;;;4940011;28;20070;-76
2024/02/09 05:12:31;;;;;;;6.05;1.83;;;9.20;99.90;;;;;;4911218;28;20039;-76
2024/02/09 05:14:59;;;;;;;3.70;1.67;;;9.20;99.90;;;;;;4923719;28;20452;-77
2024/02/09 05:17:25;;;;;;;2.95;1.77;;;9.20;99.90;;;;;;4927634;28;20024;-76
2024/02/09 05:19:56;;;;;;;2.95;1.40;;;9.20;99.90;;;;;;4928267;28;20037;-76
2024/02/09 05:22:21;;;;;;;3.88;1.30;;;9.20;99.90;;;;;;4908099;28;20698;-76
2024/02/09 05:24:47;;;;;;;4.28;1.88;;;9.20;99.90;;;;;;4910897;28;20038;-77
2024/02/09 05:27:12;;;;;;;5.70;1.50;;;9.20;99.90;;;;;;4940575;28;20465;-77
2024/02/09 05:29:38;;;;;;;2.13;1.05;;;9.20;99.90;;;;;;4940900;28;20028;-77
2024/02/09 05:32:04;;;;;;;2.13;1.27;;;9.20;99.90;;;;;;4924133;28;20032;-77
2024/02/09 05:34:29;;;;;;;2.83;1.42;;;9.20;99.90;;;;;;4926985;28;20039;-77
2024/02/09 05:36:55;;;;;;;2.03;1.55;;;9.20;99.90;;;;;;4911684;28;20373;-77
2024/02/09 05:39:22;;;;;;;6.40;1.40;;;9.20;99.90;;;;;;4924606;28;20038;-76
2024/02/09 05:41:48;;;;;;;1.58;0.93;;;9.20;99.90;;;;;;4924063;28;20405;-76
2024/02/09 05:44:14;;;;;;;1.95;1.05;;;9.20;99.90;;;;;;4909377;28;20040;-77
2024/02/09 05:46:42;;;;;;;4.82;1.40;;;9.20;99.90;;;;;;4907898;28;20032;-77
2024/02/09 05:49:10;;;;;;;1.35;1.15;;;9.20;99.90;;;;;;4941683;28;20055;-77
2024/02/09 05:51:36;;;;;;;4.05;1.35;;;9.20;99.90;;;;;;4926864;28;20042;-77
2024/02/09 05:54:02;;;;;;;4.07;1.52;;;9.20;99.90;;;;;;4908540;28;20400;-76
2024/02/09 05:56:27;;;;;;;2.85;1.35;;;9.20;99.90;;;;;;4924177;28;25098;-76
2024/02/09 05:58:55;;;;;;;6.55;1.90;;;9.20;99.90;;;;;;4922365;28;20629;-76
2024/02/09 06:01:20;;;;;;;3.97;1.73;;;9.20;99.90;;;;;;4937997;28;20535;-75
2024/02/09 06:03:46;;;;;;;3.58;2.33;;;9.20;99.90;;;;;;4926187;28;20031;-76
2024/02/09 06:06:13;;;;;;;2.05;1.30;;;9.20;99.90;;;;;;4923480;28;20051;-76
2024/02/09 06:08:39;;;;;;;3.63;1.30;;;9.20;99.90;;;;;;4914932;28;20081;-78
2024/02/09 06:11:05;;;;;;;4.68;1.33;;;9.20;99.90;;;;;;4914909;28;20485;-75
2024/02/09 06:13:30;;;;;;;2.35;1.33;;;9.20;99.90;;;;;;4911627;28;20154;-76
2024/02/09 06:15:58;;;;;;;6.47;1.40;;;9.20;99.90;;;;;;4943267;28;20058;-76
2024/02/09 06:18:27;;;;;;;4.88;1.75;;;9.20;99.90;;;;;;4941813;28;20035;-76
2024/02/09 06:20:53;;;;;;;3.85;1.98;;;9.20;99.90;;;;;;4924400;28;20066;-75
2024/02/09 06:23:21;;;;;;;2.13;0.95;;;9.20;99.90;;;;;;4909236;28;20044;-76
2024/02/09 06:25:49;;;;;;;2.58;1.38;;;9.20;99.90;;;;;;4924048;28;20063;-76
2024/02/09 06:28:15;;;;;;;3.70;1.08;;;9.20;99.90;;;;;;4944407;28;20042;-76
2024/02/09 06:30:40;;;;;;;4.13;1.67;;;9.20;99.90;;;;;;4962145;28;20040;-77
2024/02/09 06:33:08;;;;;;;5.38;1.50;;;9.20;99.90;;;;;;4928345;28;20089;-77
2024/02/09 06:35:34;;;;;;;2.90;1.08;;;9.20;99.90;;;;;;4930021;28;20051;-77
2024/02/09 06:37:59;;;;;;;3.72;1.48;;;9.20;99.90;;;;;;4941461;28;20035;-77
2024/02/09 06:40:25;;;;;;;2.38;1.45;;;9.20;99.90;;;;;;4944554;28;20039;-77
2024/02/09 06:42:51;;;;;;;2.78;1.45;;;9.20;99.90;;;;;;4940887;28;20471;-77
2024/02/09 06:45:17;;;;;;;2.75;1.52;;;9.20;99.90;;;;;;4926013;28;20040;-77
2024/02/09 06:47:43;;;;;;;5.05;1.52;;;9.20;99.90;;;;;;4926414;28;20040;-77
2024/02/09 06:50:12;;;;;;;1.48;0.93;;;9.20;99.90;;;;;;4925790;28;20122;-77
2024/02/09 06:52:40;;;;;;;3.63;1.20;;;9.20;99.90;;;;;;4941429;28;20553;-77
2024/02/09 06:55:08;;;;;;;1.95;1.02;;;9.20;99.90;;;;;;4927454;29;20405;-77
2024/02/09 06:57:34;;;;;;;2.95;1.50;;;9.20;99.90;;;;;;4939859;28;20560;-77
2024/02/09 06:59:59;;;;;;;2.15;1.25;;;9.20;99.90;;;;;;4928186;28;20109;-77
2024/02/09 07:02:25;;;;;;;2.35;1.20;;;9.20;99.90;;;;;;4944207;28;20449;-76
2024/02/09 07:05:00;;;;;;;3.08;1.27;;;9.20;99.90;;;;;;4910869;28;20416;-77
2024/02/09 07:07:27;;;;;;;2.90;1.50;;;9.20;99.90;;;;;;4914244;28;20650;-77
2024/02/09 07:09:53;;;;;;;4.95;1.08;;;9.20;99.90;;;;;;4928390;28;20096;-77
2024/02/09 07:12:18;;;;;;;2.33;0.90;;;9.20;99.90;;;;;;4910527;28;20031;-77
2024/02/09 07:14:44;;;;;;;3.65;1.23;;;9.20;99.90;;;;;;4915192;28;20035;-77
2024/02/09 07:17:09;;;;;;;4.57;1.10;;;9.30;99.90;;;;;;4924352;28;20035;-77
2024/02/09 07:19:35;;;;;;;3.42;1.73;;;9.20;99.90;;;;;;4938588;28;20531;-77
2024/02/09 07:22:01;;;;;;;2.72;1.52;;;9.30;99.90;;;;;;4944331;28;20049;-77
2024/02/09 07:24:27;;;;;;;4.47;1.30;;;9.20;99.90;;;;;;4929254;28;20046;-77
2024/02/09 07:26:53;;;;;;;3.13;1.23;;;9.30;99.90;;;;;;4940535;28;20043;-77
2024/02/09 07:29:22;;;;;;;2.85;1.08;;;9.30;99.90;;;;;;4925853;28;20036;-77
2024/02/09 07:31:49;;;;;;;3.85;1.30;;;9.30;99.90;;;;;;4955277;28;20032;-77
2024/02/09 07:34:15;;;;;;;2.33;1.45;;;9.30;99.90;;;;;;4927609;28;20091;-77
2024/02/09 07:36:41;;;;;;;4.65;2.17;;;9.30;99.90;;;;;;4910201;28;20046;-77
2024/02/09 07:39:07;;;;;;;5.05;1.38;;;9.30;99.90;;;;;;4929146;28;20031;-77
2024/02/09 07:41:33;;;;;;;1.63;1.13;;;9.30;99.90;;;;;;4909681;28;20086;-77
2024/02/09 07:44:01;;;;;;;6.05;1.90;;;9.30;99.90;;;;;;4907402;28;20046;-77
2024/02/09 07:46:27;;;;;;;4.60;1.05;;;9.40;99.90;;;;;;4915995;28;20034;-77
2024/02/09 07:48:53;;;;;;;1.52;0.90;;;9.40;99.90;;;;;;4908949;28;20408;-77
2024/02/09 07:51:20;;;;;;;2.58;0.85;;;9.40;99.90;;;;;;4924784;28;20106;-77
2024/02/09 07:53:52;;;;;;;2.97;1.13;;;9.40;99.90;;;;;;4927471;28;20040;-77
2024/02/09 07:56:18;;;;;;;4.13;1.08;;;9.50;99.90;;;;;;4921692;28;20039;-78
2024/02/09 07:58:44;;;;;;;2.38;1.10;;;9.50;99.90;;;;;;4926992;28;20493;-78
2024/02/09 08:01:10;;;;;;;7.70;1.75;;;9.50;99.90;;;;;;4939193;28;20023;-76
2024/02/09 08:03:38;;;;;;;1.30;1.00;;;9.50;99.90;;;;;;4909871;28;20042;-76
2024/02/09 08:06:04;;;;;;;6.03;1.33;;;9.50;99.90;;;;;;4921677;28;20032;-77
2024/02/09 08:08:30;;;;;;;3.00;1.60;;;9.50;99.90;;;;;;4927027;28;20546;-77
2024/02/09 08:10:57;;;;;;;2.15;1.23;;;9.50;99.90;;;;;;4911885;28;20111;-77
2024/02/09 08:13:23;;;;;;;5.50;1.40;;;9.60;99.90;;;;;;4927038;28;20059;-77
2024/02/09 08:15:49;;;;;;;4.30;1.30;;;9.60;99.90;;;;;;4909048;28;20166;-76
2024/02/09 08:18:14;;;;;;;4.93;1.95;;;9.60;99.90;;;;;;4933054;28;20031;-77
2024/02/09 08:20:41;;;;;;;3.90;1.45;;;9.60;99.90;;;;;;4924647;28;20035;-77
2024/02/09 08:23:07;;;;;;;3.75;1.73;;;9.60;99.90;;;;;;4924567;28;20514;-77
2024/02/09 08:25:32;;;;;;;5.10;2.75;;;9.60;99.90;;;;;;4925124;28;20460;-77
2024/02/09 08:28:00;;;;;;;2.70;1.27;;;9.60;99.90;;;;;;4921755;28;20031;-77
2024/02/09 08:30:25;;;;;;;5.55;1.80;;;9.60;99.90;;;;;;4927506;28;20039;-77
2024/02/09 08:32:51;;;;;;;2.53;1.80;;;9.70;99.90;;;;;;4908271;28;20050;-77
2024/02/09 08:35:18;;;;;;;5.07;2.15;;;9.70;99.90;;;;;;4938534;28;20050;-77
2024/02/09 08:37:44;;;;;;;7.68;1.83;;;9.70;99.90;;;;;;4909642;28;20371;-77
2024/02/09 08:40:10;;;;;;;0.95;0.90;;;9.70;99.90;;;;;;4940390;28;20044;-77
2024/02/09 08:42:35;;;;;;;3.67;1.88;;;9.70;99.90;;;;;;4913411;28;20035;-77
2024/02/09 08:45:01;;;;;;;7.05;2.03;;;9.70;99.90;;;;;;4923883;28;20058;-76
2024/02/09 08:47:28;;;;;;;3.55;2.08;;;9.80;99.90;;;;;;4938091;28;20039;-77
2024/02/09 08:49:54;;;;;;;2.40;1.70;;;9.80;99.90;;;;;;4911408;28;20509;-77
2024/02/09 08:52:19;;;;;;;5.57;2.10;;;9.80;99.90;;;;;;4913578;28;20035;-77
2024/02/09 08:54:45;;;;;;;3.58;1.92;;;9.80;99.90;;;;;;4939814;28;20535;-76
2024/02/09 08:57:12;;;;;;;7.07;2.63;;;9.80;99.90;;;;;;4923296;28;20034;-76
2024/02/09 08:59:41;;;;;;;3.58;2.10;;;9.90;99.90;;;;;;4922730;28;20416;-76
2024/02/09 09:02:07;;;;;;;4.00;1.50;;;9.80;99.90;;;;;;4922933;28;20034;-76
2024/02/09 09:04:33;;;;;;;5.55;1.95;;;9.90;99.90;;;;;;4925691;28;20443;-76
2024/02/09 09:06:59;;;;;;;3.65;1.25;;;9.90;99.90;;;;;;4904536;28;20031;-75
2024/02/09 09:09:26;;;;;;;7.22;2.13;;;9.90;99.90;;;;;;4920528;28;20047;-78
2024/02/09 09:11:54;;;;;;;3.75;1.85;;;9.90;99.90;;;;;;4911837;28;20428;-76
2024/02/09 09:14:20;;;;;;;3.03;1.40;;;9.90;99.90;;;;;;4925846;28;20031;-76
2024/02/09 09:16:46;;;;;;;7.57;2.15;;;9.90;99.90;;;;;;4925321;28;20357;-76
2024/02/09 09:19:12;;;;;;;2.17;1.48;;;10.00;99.90;;;;;;4926487;28;20456;-76
2024/02/09 09:21:38;;;;;;;2.47;1.50;;;10.00;99.90;;;;;;4938785;28;20031;-76
2024/02/09 09:24:05;;;;;;;4.80;2.33;;;10.10;99.90;;;;;;4921460;28;20090;-77
2024/02/09 09:26:31;;;;;;;2.90;1.50;;;10.00;99.90;;;;;;4921063;28;20048;-77
2024/02/09 09:28:59;;;;;;;3.25;1.60;;;10.10;99.90;;;;;;4926221;28;20035;-77
2024/02/09 09:31:29;;;;;;;2.45;1.38;;;10.10;99.90;;;;;;4929095;28;20065;-76
2024/02/09 09:33:58;;;;;;;1.15;0.65;;;10.20;99.90;;;;;;4924982;28;20511;-77
2024/02/09 09:36:26;;;;;;;5.32;1.95;;;10.20;99.90;;;;;;4932997;28;20031;-76
2024/02/09 09:38:52;;;;;;;4.75;1.88;;;10.20;99.90;;;;;;4943440;28;20126;-77
2024/02/09 09:41:19;;;;;;;5.05;1.42;;;10.30;99.90;;;;;;4924785;28;20043;-77
2024/02/09 09:43:46;;;;;;;3.08;1.42;;;10.30;99.90;;;;;;4924965;28;20480;-76
2024/02/09 09:46:13;;;;;;;3.03;1.58;;;10.40;99.90;;;;;;4922849;28;20493;-77
2024/02/09 09:48:39;;;;;;;2.85;1.98;;;10.40;99.90;;;;;;4924854;28;20043;-77
2024/02/09 09:51:05;;;;;;;2.47;1.60;;;10.40;99.90;;;;;;4924475;28;20042;-77
2024/02/09 09:53:42;;;;;;;7.10;1.67;;;10.40;99.90;;;;;;4922433;28;20505;-77
2024/02/09 09:56:08;;;;;;;5.70;1.38;;;10.60;99.90;;;;;;4914880;29;20035;-77
2024/02/09 09:58:37;;;;;;;2.22;0.85;;;10.50;99.90;;;;;;4907352;28;20638;-77
2024/02/09 10:01:09;;;;;;;8.90;2.72;;;10.60;99.90;;;;;;4921879;28;20063;-77
2024/02/09 10:03:38;;;;;;;6.43;1.35;;;10.60;99.90;;;;;;4926899;28;20047;-78
2024/02/09 10:06:04;;;;;;;3.75;1.92;;;10.70;99.90;;;;;;4912582;28;21484;-78
2024/02/09 10:08:30;;;;;;;1.60;1.08;;;10.60;99.90;;;;;;4941147;28;20032;-77
2024/02/09 10:10:56;;;;;;;1.20;0.93;;;10.60;99.90;;;;;;4923865;28;20031;-77
2024/02/09 10:13:25;;;;;;;2.00;1.02;;;10.60;99.90;;;;;;4909592;28;20118;-77
2024/02/09 10:15:55;;;;;;;4.28;1.55;;;10.70;99.90;;;;;;4921924;28;20698;-77
2024/02/09 10:18:21;;;;;;;0.88;0.65;;;10.70;99.90;;;;;;4943254;28;20038;-78
2024/02/09 10:20:46;;;;;;;5.38;1.75;;;10.80;99.90;;;;;;4923009;28;20031;-78
2024/02/09 10:23:15;;;;;;;4.68;1.55;;;10.90;99.90;;;;;;4911975;28;20039;-77
2024/02/09 10:25:42;;;;;;;3.03;1.50;;;11.00;99.90;;;;;;4922088;28;20055;-78
2024/02/09 10:28:08;;;;;;;5.40;1.98;;;11.00;99.90;;;;;;4911116;28;20083;-77
2024/02/09 10:30:35;;;;;;;6.63;1.42;;;11.10;99.90;;;;;;4921821;28;20580;-77
2024/02/09 10:33:01;;;;;;;5.38;1.35;;;11.20;99.90;;;;;;4925164;28;20477;-77
2024/02/09 10:35:27;;;;;;;2.53;1.40;;;11.30;99.90;;;;;;4928242;28;20054;-78
2024/02/09 10:37:55;;;;;;;2.70;1.20;;;11.30;99.90;;;;;;4921731;28;20050;-78
2024/02/09 10:40:21;;;;;;;4.22;1.92;;;11.30;99.90;;;;;;4913509;28;20051;-77
2024/02/09 10:42:47;;;;;;;2.38;1.27;;;11.40;99.90;;;;;;4923322;28;20497;-78
2024/02/09 10:45:13;;;;;;;3.47;1.45;;;11.40;99.90;;;;;;4908407;28;20077;-77
2024/02/09 10:47:39;;;;;;;5.15;1.52;;;11.50;99.90;;;;;;4926360;28;20352;-78
2024/02/09 10:50:05;;;;;;;4.78;1.50;;;11.60;99.90;;;;;;4925511;28;20043;-78
2024/02/09 10:52:35;;;;;;;2.63;0.82;;;11.60;99.90;;;;;;4926547;28;24688;-76
2024/02/09 10:55:01;;;;;;;11.15;1.63;;;11.70;99.90;;;;;;4914614;28;20062;-76
2024/02/09 10:57:27;;;;;;;3.50;1.98;;;11.70;99.90;;;;;;4929424;28;20496;-77
2024/02/09 10:59:53;;;;;;;3.88;1.55;;;11.90;99.90;;;;;;4931591;28;20047;-77
2024/02/09 11:02:19;;;;;;;4.47;1.98;;;11.80;99.90;;;;;;4589401;28;10000866;-76
2024/02/09 11:04:46;;;;;;;2.63;1.38;;;12.00;99.90;;;;;;4926092;28;20837;-77
2024/02/09 11:07:14;;;;;;;7.30;2.25;;;12.10;99.90;;;;;;4912709;28;20122;-77
2024/02/09 11:09:42;;;;;;;3.47;1.45;;;12.30;99.90;;;;;;4913457;29;20043;-77
2024/02/09 11:12:08;;;;;;;5.25;1.50;;;12.50;99.90;;;;;;4927122;28;20035;-77
2024/02/09 11:14:35;;;;;;;2.45;1.77;;;12.60;99.90;;;;;;4927532;28;20041;-76
2024/02/09 11:17:06;;;;;;;5.97;2.05;;;12.50;99.90;;;;;;4911711;28;20477;-77
2024/02/09 11:19:38;;;;;;;2.67;1.80;;;12.60;99.90;;;;;;4929082;28;20162;-77
2024/02/09 11:22:05;;;;;;;4.82;2.17;;;12.70;99.90;;;;;;4926626;28;20043;-77
2024/02/09 11:24:31;;;;;;;4.47;2.67;;;12.80;99.90;;;;;;4927145;28;20129;-77
2024/02/09 11:26:59;;;;;;;1.65;1.15;;;12.90;99.90;;;;;;4925471;28;20512;-77
2024/02/09 11:29:24;;;;;;;3.08;1.85;;;12.80;99.90;;;;;;4929910;28;20082;-78
2024/02/09 11:31:52;;;;;;;3.75;1.75;;;12.90;99.90;;;;;;4939184;28;20035;-78
2024/02/09 11:34:18;;;;;;;2.30;1.60;;;12.90;99.90;;;;;;4912813;28;20453;-78
2024/02/09 11:36:44;;;;;;;2.85;1.77;;;12.90;99.90;;;;;;4913311;28;20549;-77
2024/02/09 11:39:11;;;;;;;6.75;2.40;;;13.00;99.90;;;;;;4914554;29;20126;-78
2024/02/09 11:41:39;;;;;;;5.85;1.95;;;13.00;99.90;;;;;;4925813;28;20489;-78
2024/02/09 11:44:06;;;;;;;2.72;1.88;;;13.00;99.90;;;;;;4912896;28;20402;-78
2024/02/09 11:46:35;;;;;;;6.28;2.00;;;13.20;99.90;;;;;;4928016;28;21260;-78
2024/02/09 11:49:02;;;;;;;3.10;1.55;;;13.10;99.90;;;;;;4910124;28;20078;-76
2024/02/09 11:51:30;;;;;;;5.53;2.10;;;13.10;99.90;;;;;;4942342;28;20102;-78
2024/02/09 11:53:57;;;;;;;4.03;1.52;;;13.10;99.90;;;;;;4926501;28;20520;-77
2024/02/09 11:56:23;;;;;;;5.88;1.70;;;13.00;99.90;;;;;;4927644;28;20062;-76
2024/02/09 11:58:49;;;;;;;4.35;1.35;;;13.10;99.90;;;;;;4941174;28;20482;-78
2024/02/09 12:01:18;;;;;;;5.65;1.55;;;13.10;99.90;;;;;;4909912;28;20035;-77
2024/02/09 12:03:44;;;;;;;4.65;2.33;;;13.10;99.90;;;;;;4927918;28;20540;-77
2024/02/09 12:06:10;;;;;;;3.40;1.08;;;13.10;99.90;;;;;;4927945;28;20031;-78
2024/02/09 12:08:36;;;;;;;5.72;2.15;;;13.10;99.90;;;;;;4926972;28;20069;-76
2024/02/09 12:11:02;;;;;;;5.50;1.50;;;13.00;99.90;;;;;;4927039;28;20063;-76
2024/02/09 12:13:28;;;;;;;3.88;1.70;;;13.00;99.90;;;;;;4909818;28;20036;-77
2024/02/09 12:15:54;;;;;;;2.40;0.80;;;13.00;99.90;;;;;;4913793;28;20039;-77
2024/02/09 12:18:20;;;;;;;5.35;1.55;;;12.90;99.90;;;;;;4929659;28;20071;-77
2024/02/09 12:20:46;;;;;;;2.28;1.25;;;12.90;99.90;;;;;;4912010;28;20032;-77
2024/02/09 12:23:12;;;;;;;2.85;1.55;;;12.90;99.90;;;;;;4944520;28;20031;-77
2024/02/09 12:25:38;;;;;;;3.22;1.95;;;13.00;99.90;;;;;;4927603;28;20131;-77
2024/02/09 12:28:05;;;;;;;3.60;1.80;;;13.00;99.90;;;;;;4927516;28;20043;-77
2024/02/09 12:30:31;;;;;;;1.95;1.50;;;13.00;99.90;;;;;;4929403;28;20814;-78
2024/02/09 12:32:58;;;;;;;4.10;1.80;;;13.00;99.90;;;;;;4924778;28;20082;-78
2024/02/09 12:35:28;;;;;;;5.15;1.75;;;13.00;99.90;;;;;;4927182;28;20492;-76
2024/02/09 12:37:56;;;;;;;3.70;1.05;;;13.00;99.90;;;;;;4927643;28;20392;-78
2024/02/09 12:40:22;;;;;;;4.10;2.13;;;13.10;99.90;;;;;;4915623;28;20527;-78
2024/02/09 12:42:48;;;;;;;2.80;1.60;;;13.20;99.90;;;;;;4913463;28;20043;-77
2024/02/09 12:45:18;;;;;;;1.42;1.20;;;13.20;99.90;;;;;;4913281;28;20039;-78
2024/02/09 12:47:46;;;;;;;3.22;1.10;;;13.10;99.90;;;;;;4942396;28;20139;-78
2024/02/09 12:50:12;;;;;;;4.18;1.65;;;13.10;99.90;;;;;;4911374;29;20433;-78
2024/02/09 12:52:39;;;;;;;2.50;1.20;;;13.10;99.90;;;;;;4912263;28;20042;-78
2024/02/09 12:55:05;;;;;;;2.45;1.40;;;13.00;99.90;;;;;;4924740;28;20545;-78
2024/02/09 12:57:30;;;;;;;3.88;1.65;;;13.00;99.90;;;;;;4940553;28;20539;-77
2024/02/09 12:59:56;;;;;;;6.82;2.25;;;13.10;99.90;;;;;;4912163;28;20028;-77
2024/02/09 13:02:25;;;;;;;3.63;1.02;;;13.10;99.90;;;;;;4930156;28;20110;-78
2024/02/09 13:04:51;;;;;;;7.25;2.20;;;13.10;99.90;;;;;;4940853;28;20035;-77
2024/02/09 13:07:17;;;;;;;3.67;2.20;;;13.20;99.90;;;;;;4925544;28;20043;-77
2024/02/09 13:09:43;;;;;;;5.63;2.22;;;13.20;99.90;;;;;;4908107;28;20488;-77
2024/02/09 13:12:09;;;;;;;3.13;1.75;;;13.20;99.90;;;;;;4910816;28;20121;-77
2024/02/09 13:14:37;;;;;;;3.40;1.80;;;13.20;99.90;;;;;;4940672;28;20480;-77
2024/02/09 13:17:04;;;;;;;2.85;1.95;;;13.10;99.90;;;;;;4926626;28;20145;-77
2024/02/09 13:19:30;;;;;;;5.45;1.63;;;13.20;99.90;;;;;;4912275;28;20035;-77
2024/02/09 13:22:01;;;;;;;4.38;2.00;;;13.20;99.90;;;;;;4943700;28;20027;-78
2024/02/09 13:24:27;;;;;;;3.25;1.70;;;13.10;99.90;;;;;;4942722;28;20031;-77
2024/02/09 13:26:54;;;;;;;3.65;1.38;;;13.20;99.90;;;;;;4926722;28;20034;-78
2024/02/09 13:29:26;;;;;;;3.72;1.80;;;13.20;99.90;;;;;;4914585;28;20118;-78
2024/02/09 13:31:54;;;;;;;3.58;1.55;;;13.20;99.90;;;;;;4928376;28;20085;-78
2024/02/09 13:34:21;;;;;;;1.83;1.02;;;13.20;99.90;;;;;;4905209;28;20560;-78
2024/02/09 13:36:47;;;;;;;5.10;2.03;;;13.20;99.90;;;;;;4930404;28;20373;-78
2024/02/09 13:39:13;;;;;;;3.15;1.75;;;13.10;99.90;;;;;;4942786;28;20039;-78
2024/02/09 13:41:40;;;;;;;4.70;1.75;;;13.20;99.90;;;;;;4928302;28;20420;-78
2024/02/09 13:44:06;;;;;;;5.40;1.80;;;13.10;99.90;;;;;;4917992;28;20054;-78
2024/02/09 13:46:31;;;;;;;6.95;2.13;;;13.10;99.90;;;;;;4939866;28;20055;-77
2024/02/09 13:48:57;;;;;;;3.50;1.67;;;13.20;99.90;;;;;;4923264;28;20060;-78
2024/02/09 13:51:25;;;;;;;4.78;1.65;;;13.20;99.90;;;;;;4925108;28;20621;-78
2024/02/09 13:53:51;;;;;;;2.22;1.15;;;13.20;99.90;;;;;;4910254;28;20374;-77
2024/02/09 13:56:16;;;;;;;4.53;1.67;;;13.10;99.90;;;;;;4912757;28;20047;-77
2024/02/09 13:58:46;;;;;;;2.72;1.45;;;13.00;99.90;;;;;;4926595;28;20078;-77
2024/02/09 14:01:13;;;;;;;4.72;1.52;;;13.10;99.90;;;;;;4926698;28;20043;-76
2024/02/09 14:03:39;;;;;;;3.17;1.27;;;13.10;99.90;;;;;;4925176;28;20114;-77
2024/02/09 14:06:04;;;;;;;3.47;1.63;;;13.00;99.90;;;;;;4938959;28;20122;-77
2024/02/09 14:08:32;;;;;;;6.07;1.73;;;13.10;99.90;;;;;;4928458;28;20043;-77
2024/02/09 14:10:58;;;;;;;3.92;1.58;;;13.00;99.90;;;;;;4911972;28;20035;-78
2024/02/09 14:13:23;;;;;;;2.03;1.48;;;13.10;99.90;;;;;;4912470;28;20090;-78
2024/02/09 14:15:50;;;;;;;3.33;1.67;;;13.20;99.90;;;;;;4909796;28;20501;-78
2024/02/09 14:18:19;;;;;;;4.65;1.83;;;13.30;99.90;;;;;;4924368;28;20047;-77
2024/02/09 14:20:49;;;;;;;4.32;1.50;;;13.20;99.90;;;;;;4941825;28;20043;-78
2024/02/09 14:23:14;;;;;;;3.03;1.90;;;13.30;99.90;;;;;;4911244;28;20506;-77
2024/02/09 14:25:40;;;;;;;1.98;1.50;;;13.20;99.90;;;;;;4912650;28;20060;-78
2024/02/09 14:28:08;;;;;;;3.03;1.60;;;13.20;99.90;;;;;;4942448;28;20035;-77
2024/02/09 14:30:35;;;;;;;3.30;1.85;;;13.20;99.90;;;;;;4930544;28;20032;-77
2024/02/09 14:33:01;;;;;;;3.88;1.75;;;13.10;99.90;;;;;;4925915;28;20519;-77
2024/02/09 14:35:26;;;;;;;6.05;1.85;;;13.20;99.90;;;;;;4927741;28;20039;-77